createdAt,value
2023-04-11T00:01:14.863Z,2.30
2023-04-11T00:03:44.270Z,2.50
2023-04-11T00:06:14.364Z,2.70
2023-04-11T00:08:44.940Z,2.85
2023-04-11T00:11:15.598Z,2.50
2023-04-11T00:13:46.335Z,2.38
2023-04-11T00:16:17.591Z,2.30
2023-04-11T00:18:47.114Z,2.30
2023-04-11T00:21:16.303Z,2.10
2023-04-11T00:23:44.740Z,1.95
2023-04-11T00:26:14.612Z,2.00
2023-04-11T00:28:46.512Z,1.70
2023-04-11T00:31:17.175Z,1.98
2023-04-11T00:33:46.786Z,1.80
2023-04-11T00:36:16.141Z,1.75
2023-04-11T00:38:45.335Z,2.10
2023-04-11T00:41:14.544Z,2.00
2023-04-11T00:43:43.878Z,1.90
2023-04-11T00:46:12.696Z,2.00
2023-04-11T00:48:42.824Z,1.80
2023-04-11T00:51:12.369Z,2.10
2023-04-11T00:53:44.189Z,2.00
2023-04-11T00:56:14.466Z,2.10
2023-04-11T00:58:45.518Z,1.90
2023-04-11T01:01:17.512Z,2.00
2023-04-11T01:03:53.340Z,1.88
2023-04-11T01:06:41.762Z,1.90
2023-04-11T01:09:19.462Z,1.90
2023-04-11T01:12:00.267Z,2.10
2023-04-11T01:14:31.655Z,1.90
2023-04-11T01:17:03.479Z,1.90
2023-04-11T01:19:33.091Z,2.00
2023-04-11T01:22:03.980Z,1.80
2023-04-11T01:24:34.627Z,2.00
2023-04-11T01:27:04.542Z,1.70
2023-04-11T01:29:34.560Z,1.90
2023-04-11T01:32:03.920Z,1.80
2023-04-11T01:34:35.354Z,1.80
2023-04-11T01:37:04.375Z,1.90
2023-04-11T01:39:32.598Z,1.95
2023-04-11T01:42:04.063Z,2.00
2023-04-11T01:44:34.494Z,2.00
2023-04-11T01:47:04.958Z,2.30
2023-04-11T01:49:34.673Z,1.83
2023-04-11T01:52:03.575Z,1.85
2023-04-11T01:54:32.433Z,1.90
2023-04-11T01:57:02.391Z,1.70
2023-04-11T01:59:32.130Z,1.83
2023-04-11T02:02:02.852Z,2.00
2023-04-11T02:04:34.494Z,1.95
2023-04-11T02:07:03.585Z,1.77
2023-04-11T02:09:32.446Z,1.90
2023-04-11T02:12:02.564Z,1.90
2023-04-11T02:14:46.556Z,1.90
2023-04-11T02:17:15.548Z,1.90
2023-04-11T02:19:48.592Z,1.63
2023-04-11T02:22:18.331Z,1.80
2023-04-11T02:24:48.414Z,2.00
2023-04-11T02:27:17.103Z,1.90
2023-04-11T02:29:48.798Z,2.00
2023-04-11T02:32:18.859Z,1.85
2023-04-11T02:34:48.497Z,2.10
2023-04-11T02:37:18.285Z,1.85
2023-04-11T02:39:46.892Z,1.90
2023-04-11T02:42:15.986Z,1.90
2023-04-11T02:44:44.589Z,2.10
2023-04-11T02:47:13.596Z,1.80
2023-04-11T02:49:43.473Z,1.90
2023-04-11T02:52:16.367Z,1.85
2023-04-11T02:54:44.630Z,2.00
2023-04-11T02:57:14.285Z,1.67
2023-04-11T02:59:42.976Z,1.83
2023-04-11T03:02:12.815Z,1.92
2023-04-11T03:04:42.369Z,2.20
2023-04-11T03:07:20.161Z,2.05
2023-04-11T03:09:49.049Z,1.90
2023-04-11T03:12:20.594Z,1.70
2023-04-11T03:14:59.352Z,2.25
2023-04-11T03:17:29.592Z,2.05
2023-04-11T03:20:00.128Z,2.10
2023-04-11T03:22:29.642Z,2.10
2023-04-11T03:25:02.407Z,1.92
2023-04-11T03:27:33.047Z,2.10
2023-04-11T03:30:05.282Z,1.92
2023-04-11T03:32:43.091Z,1.77
2023-04-11T03:35:12.908Z,2.05
2023-04-11T03:37:48.417Z,2.10
2023-04-11T03:40:19.700Z,2.08
2023-04-11T03:42:54.391Z,2.28
2023-04-11T03:45:30.905Z,2.10
2023-04-11T03:48:02.640Z,1.90
2023-04-11T03:50:46.823Z,2.08
2023-04-11T03:53:19.847Z,2.20
2023-04-11T03:55:50.634Z,2.00
2023-04-11T03:58:22.551Z,2.00
2023-04-11T04:00:52.474Z,1.90
2023-04-11T04:03:22.814Z,2.00
2023-04-11T04:05:52.805Z,2.10
2023-04-11T04:08:25.058Z,2.00
2023-04-11T04:10:54.832Z,2.10
2023-04-11T04:13:24.649Z,2.00
2023-04-11T04:16:12.198Z,2.10
2023-04-11T04:18:44.185Z,1.92
2023-04-11T04:21:12.998Z,2.00
2023-04-11T04:23:48.004Z,2.10
2023-04-11T04:26:32.645Z,2.00
2023-04-11T04:29:18.922Z,2.20
2023-04-11T04:32:02.395Z,2.10
2023-04-11T04:34:50.474Z,2.13
2023-04-11T04:37:30.541Z,1.92
2023-04-11T04:40:21.534Z,2.20
2023-04-11T04:43:03.005Z,2.20
2023-04-11T04:45:40.303Z,2.20
2023-04-11T04:48:08.829Z,2.20
2023-04-11T04:50:39.118Z,2.10
2023-04-11T04:53:08.690Z,1.98
2023-04-11T04:55:42.872Z,1.85
2023-04-11T04:58:12.456Z,2.25
2023-04-11T05:00:42.148Z,2.15
2023-04-11T05:03:21.390Z,2.20
2023-04-11T05:05:54.702Z,1.98
2023-04-11T05:08:23.928Z,2.00
2023-04-11T05:10:54.754Z,1.80
2023-04-11T05:13:23.411Z,2.10
2023-04-11T05:15:52.637Z,2.10
2023-04-11T05:18:22.540Z,1.95
2023-04-11T05:20:52.742Z,2.20
2023-04-11T05:23:27.224Z,2.08
2023-04-11T05:26:00.530Z,2.00
2023-04-11T05:28:30.924Z,2.20
2023-04-11T05:31:03.619Z,2.00
2023-04-11T05:33:33.664Z,2.08
2023-04-11T05:36:03.881Z,1.90
2023-04-11T05:38:35.995Z,2.10
2023-04-11T05:41:07.935Z,1.75
2023-04-11T05:43:37.373Z,1.77
2023-04-11T05:46:08.681Z,1.88
2023-04-11T05:48:39.736Z,1.90
2023-04-11T05:51:08.935Z,1.73
2023-04-11T05:53:38.743Z,2.03
2023-04-11T05:56:09.063Z,1.90
2023-04-11T05:58:38.969Z,2.00
2023-04-11T06:01:12.852Z,1.70
2023-04-11T06:03:42.993Z,1.88
2023-04-11T06:06:12.759Z,1.73
2023-04-11T06:08:42.939Z,1.80
2023-04-11T06:11:13.235Z,1.90
2023-04-11T06:13:42.967Z,1.90
2023-04-11T06:16:11.992Z,1.90
2023-04-11T06:18:41.122Z,1.90
2023-04-11T06:21:12.316Z,1.90
2023-04-11T06:23:40.598Z,1.70
2023-04-11T06:26:11.005Z,2.10
2023-04-11T06:28:42.962Z,1.80
2023-04-11T06:31:12.432Z,2.05
2023-04-11T06:33:41.651Z,1.80
2023-04-11T06:36:11.332Z,1.83
2023-04-11T06:38:41.391Z,1.92
2023-04-11T06:41:11.894Z,1.95
2023-04-11T06:43:43.262Z,1.77
2023-04-11T06:46:12.342Z,1.90
2023-04-11T06:48:40.793Z,2.08
2023-04-11T06:51:11.647Z,1.90
2023-04-11T06:53:40.752Z,1.85
2023-04-11T06:56:09.829Z,1.90
2023-04-11T06:58:39.556Z,1.90
2023-04-11T07:01:09.165Z,1.90
2023-04-11T07:03:39.486Z,2.10
2023-04-11T07:06:09.427Z,2.00
2023-04-11T07:08:40.301Z,2.20
2023-04-11T07:11:09.200Z,1.90
2023-04-11T07:13:40.113Z,1.80
2023-04-11T07:16:10.703Z,1.80
2023-04-11T07:18:39.545Z,2.00
2023-04-11T07:21:14.583Z,1.83
2023-04-11T07:26:17.461Z,1.58
2023-04-11T07:28:48.111Z,1.80
2023-04-11T07:31:20.489Z,1.90
2023-04-11T07:33:49.268Z,1.77
2023-04-11T07:36:18.909Z,2.00
2023-04-11T07:38:48.299Z,2.03
2023-04-11T07:41:17.588Z,2.00
2023-04-11T07:43:47.671Z,2.00
2023-04-11T07:46:17.734Z,1.75
2023-04-11T07:48:47.522Z,2.10
2023-04-11T07:51:18.474Z,1.90
2023-04-11T07:53:47.344Z,1.90
2023-04-11T07:56:16.641Z,1.77
2023-04-11T07:58:45.362Z,1.77
2023-04-11T08:01:26.009Z,1.98
2023-04-11T08:03:58.299Z,1.90
2023-04-11T08:06:30.939Z,1.98
2023-04-11T08:09:01.434Z,1.90
2023-04-11T08:11:32.556Z,1.98
2023-04-11T08:14:03.050Z,1.90
2023-04-11T08:16:36.389Z,1.80
2023-04-11T08:19:06.737Z,1.83
2023-04-11T08:21:35.801Z,1.80
2023-04-11T08:24:05.092Z,1.90
2023-04-11T08:26:34.681Z,1.80
2023-04-11T08:29:04.189Z,2.00
2023-04-11T08:31:33.226Z,1.98
2023-04-11T08:34:04.464Z,1.80
2023-04-11T08:36:34.846Z,1.80
2023-04-11T08:39:04.132Z,1.92
2023-04-11T08:41:34.745Z,2.03
2023-04-11T08:44:04.041Z,1.88
2023-04-11T08:46:42.482Z,1.92
2023-04-11T08:49:12.715Z,1.85
2023-04-11T08:51:44.319Z,1.90
2023-04-11T08:54:13.313Z,1.77
2023-04-11T08:56:44.532Z,1.98
2023-04-11T08:59:12.814Z,1.95
2023-04-11T09:01:43.087Z,1.80
2023-04-11T09:04:12.526Z,1.88
2023-04-11T09:06:43.889Z,2.10
2023-04-11T09:09:32.016Z,1.70
2023-04-11T09:12:04.005Z,1.70
2023-04-11T09:14:33.098Z,2.00
2023-04-11T09:17:06.802Z,2.03
2023-04-11T09:19:36.771Z,1.73
2023-04-11T09:22:06.948Z,1.90
2023-04-11T09:24:37.197Z,1.60
2023-04-11T09:27:20.391Z,1.80
2023-04-11T09:29:49.962Z,1.88
2023-04-11T09:32:34.847Z,1.92
2023-04-11T09:35:25.675Z,2.00
2023-04-11T09:38:04.013Z,1.63
2023-04-11T09:40:44.087Z,1.92
2023-04-11T09:43:12.873Z,1.70
2023-04-11T09:45:53.727Z,1.75
2023-04-11T09:48:32.104Z,1.58
2023-04-11T09:51:10.688Z,1.75
2023-04-11T09:53:41.442Z,1.80
2023-04-11T09:56:11.998Z,1.70
2023-04-11T09:58:41.776Z,2.00
2023-04-11T10:01:11.918Z,1.92
2023-04-11T10:03:42.923Z,1.80
2023-04-11T10:06:16.752Z,1.90
2023-04-11T10:08:45.508Z,1.98
2023-04-11T10:11:20.856Z,1.77
2023-04-11T10:13:52.238Z,1.65
2023-04-11T10:16:23.865Z,1.80
2023-04-11T10:18:57.903Z,1.80
2023-04-11T10:21:37.067Z,1.85
2023-04-11T10:24:18.125Z,1.77
2023-04-11T10:26:49.275Z,1.80
2023-04-11T10:29:51.183Z,1.80
2023-04-11T10:32:25.775Z,1.73
2023-04-11T10:37:34.908Z,1.80
2023-04-11T10:40:12.548Z,1.45
2023-04-11T10:42:47.786Z,1.73
2023-04-11T10:45:25.094Z,1.92
2023-04-11T10:47:58.001Z,1.73
2023-04-11T10:50:32.705Z,1.95
2023-04-11T10:53:05.396Z,1.80
2023-04-11T10:55:49.693Z,2.00
2023-04-11T10:58:22.824Z,1.73
2023-04-11T11:00:54.922Z,1.73
2023-04-11T11:03:35.265Z,1.80
2023-04-11T11:06:06.874Z,1.77
2023-04-11T11:08:43.105Z,1.80
2023-04-11T11:11:13.257Z,1.90
2023-04-11T11:13:44.520Z,1.73
2023-04-11T11:16:32.688Z,1.98
2023-04-11T11:19:07.336Z,1.70
2023-04-11T11:21:37.020Z,1.70
2023-04-11T11:24:07.363Z,1.85
2023-04-11T11:26:41.567Z,1.98
2023-04-11T11:29:12.880Z,1.80
2023-04-11T11:31:48.764Z,1.70
2023-04-11T11:34:30.878Z,1.80
2023-04-11T11:37:05.083Z,1.70
2023-04-11T11:39:36.422Z,1.92
2023-04-11T11:42:05.788Z,1.95
2023-04-11T11:44:36.472Z,1.85
2023-04-11T11:47:11.175Z,1.83
2023-04-11T11:49:53.941Z,1.50
2023-04-11T11:52:42.615Z,1.77
2023-04-11T11:55:35.360Z,1.70
2023-04-11T11:58:04.859Z,1.83
2023-04-11T12:00:41.019Z,1.90
2023-04-11T12:03:13.222Z,1.80
2023-04-11T12:05:44.154Z,2.08
2023-04-11T12:08:13.197Z,1.90
2023-04-11T12:10:47.507Z,1.90
2023-04-11T12:13:24.550Z,1.98
2023-04-11T12:15:57.278Z,1.90
2023-04-11T12:18:30.556Z,1.92
2023-04-11T12:21:01.140Z,1.73
2023-04-11T12:23:32.690Z,2.08
2023-04-11T12:26:03.173Z,1.80
2023-04-11T12:28:32.326Z,2.00
2023-04-11T12:31:03.131Z,1.88
2023-04-11T12:33:32.955Z,1.90
2023-04-11T12:36:03.012Z,1.88
2023-04-11T12:38:32.512Z,1.98
2023-04-11T12:43:51.213Z,1.80
2023-04-11T12:44:22.910Z,1.75
2023-04-11T12:46:20.620Z,1.90
2023-04-11T12:48:49.090Z,1.88
2023-04-11T12:51:18.962Z,2.10
2023-04-11T12:53:49.109Z,2.00
2023-04-11T12:56:32.640Z,2.10
2023-04-11T12:59:02.762Z,2.22
2023-04-11T13:01:32.601Z,2.42
2023-04-11T13:04:02.943Z,2.03
2023-04-11T13:06:33.235Z,2.30
2023-04-11T13:09:07.575Z,2.00
2023-04-11T13:11:36.933Z,2.10
2023-04-11T13:14:08.729Z,2.53
2023-04-11T13:16:37.460Z,2.38
2023-04-11T13:19:07.269Z,2.20
2023-04-11T13:21:38.249Z,2.30
2023-04-11T13:24:08.753Z,2.10
2023-04-11T13:26:37.041Z,2.10
2023-04-11T13:29:08.104Z,2.20
2023-04-11T13:31:36.705Z,2.40
2023-04-11T13:34:05.012Z,2.05
2023-04-11T13:36:34.483Z,2.42
2023-04-11T13:39:04.422Z,2.30
2023-04-11T13:41:33.295Z,2.10
2023-04-11T13:44:02.988Z,2.20
2023-04-11T13:46:32.344Z,2.30
2023-04-11T13:49:02.983Z,2.35
2023-04-11T13:51:33.510Z,2.20
2023-04-11T13:54:02.746Z,2.30
2023-04-11T13:56:32.556Z,2.30
2023-04-11T13:59:02.757Z,2.10
2023-04-11T14:01:31.460Z,2.67
2023-04-11T14:04:01.688Z,2.30
2023-04-11T14:06:31.617Z,2.53
2023-04-11T14:09:02.882Z,2.60
2023-04-11T14:11:31.848Z,2.30
2023-04-11T14:14:02.473Z,2.17
2023-04-11T14:16:31.828Z,2.30
2023-04-11T14:19:07.215Z,2.40
2023-04-11T14:22:05.614Z,2.63
2023-04-11T14:24:41.144Z,2.38
2023-04-11T14:27:18.212Z,2.40
2023-04-11T14:29:48.429Z,2.30
2023-04-11T14:32:19.233Z,2.25
2023-04-11T14:34:48.230Z,2.20
2023-04-11T14:37:16.713Z,2.30
2023-04-11T14:39:47.016Z,2.40
2023-04-11T14:42:16.203Z,2.40
2023-04-11T14:44:45.106Z,2.28
2023-04-11T14:47:14.254Z,2.22
2023-04-11T14:49:43.441Z,2.40
2023-04-11T14:52:13.062Z,2.35
2023-04-11T14:54:42.886Z,2.25
2023-04-11T14:57:11.961Z,2.13
2023-04-11T14:59:42.047Z,2.20
2023-04-11T15:02:12.151Z,2.50
2023-04-11T15:04:41.698Z,2.10
2023-04-11T15:07:10.914Z,2.30
2023-04-11T15:09:39.447Z,2.25
2023-04-11T15:12:08.841Z,2.45
2023-04-11T15:14:38.390Z,2.50
2023-04-11T15:17:08.389Z,2.30
2023-04-11T15:19:36.993Z,2.47
2023-04-11T15:22:06.603Z,2.50
2023-04-11T15:24:35.247Z,2.20
2023-04-11T15:27:04.588Z,2.50
2023-04-11T15:29:34.686Z,2.30
2023-04-11T15:32:04.626Z,2.40
2023-04-11T15:34:32.919Z,2.15
2023-04-11T15:37:02.501Z,2.30
2023-04-11T15:39:32.554Z,2.20
2023-04-11T15:42:03.192Z,2.15
2023-04-11T15:44:32.811Z,2.20
2023-04-11T15:47:02.895Z,2.40
2023-04-11T15:49:32.296Z,2.35
2023-04-11T15:52:02.807Z,2.30
2023-04-11T15:54:32.867Z,2.40
2023-04-11T15:57:03.343Z,2.20
2023-04-11T15:59:32.568Z,2.10
2023-04-11T16:02:02.863Z,2.10
2023-04-11T16:04:32.594Z,2.22
2023-04-11T16:07:03.093Z,2.38
2023-04-11T16:09:32.405Z,2.33
2023-04-11T16:12:02.893Z,2.33
2023-04-11T16:14:32.586Z,2.28
2023-04-11T16:17:05.835Z,2.58
2023-04-11T16:19:35.114Z,2.53
2023-04-11T16:22:04.167Z,2.50
2023-04-11T16:24:33.220Z,2.00
2023-04-11T16:27:03.630Z,2.28
2023-04-11T16:29:32.724Z,2.70
2023-04-11T16:32:02.957Z,1.90
2023-04-11T16:34:33.045Z,2.10
2023-04-11T16:37:03.069Z,2.00
2023-04-11T16:39:33.230Z,2.17
2023-04-11T16:42:03.512Z,2.22
2023-04-11T16:44:32.974Z,2.20
2023-04-11T16:47:02.698Z,2.10
2023-04-11T16:49:33.047Z,2.15
2023-04-11T16:52:06.757Z,2.20
2023-04-11T16:54:36.031Z,1.85
2023-04-11T16:57:05.236Z,1.92
2023-04-11T16:59:34.554Z,2.00
2023-04-11T17:02:03.689Z,2.00
2023-04-11T17:04:33.119Z,2.10
2023-04-11T17:07:03.018Z,2.08
2023-04-11T17:09:32.614Z,2.10
2023-04-11T17:12:04.408Z,2.10
2023-04-11T17:14:36.959Z,2.00
2023-04-11T17:17:07.386Z,2.00
2023-04-11T17:19:36.521Z,2.10
2023-04-11T17:22:13.326Z,2.13
2023-04-11T17:24:43.898Z,2.15
2023-04-11T17:27:12.735Z,1.85
2023-04-11T17:29:41.338Z,1.63
2023-04-11T17:32:11.383Z,1.88
2023-04-11T17:34:40.866Z,1.80
2023-04-11T17:37:10.699Z,1.90
2023-04-11T17:39:39.521Z,2.10
2023-04-11T17:42:08.884Z,1.83
2023-04-11T17:44:37.477Z,2.10
2023-04-11T17:47:08.570Z,1.58
2023-04-11T17:49:37.121Z,2.10
2023-04-11T17:52:07.675Z,1.90
2023-04-11T17:54:37.253Z,1.77
2023-04-11T17:57:08.366Z,1.90
2023-04-11T17:59:37.048Z,1.73
2023-04-11T18:02:07.603Z,1.60
2023-04-11T18:04:36.934Z,1.65
2023-04-11T18:07:08.075Z,1.70
2023-04-11T18:09:37.458Z,1.65
2023-04-11T18:12:07.092Z,1.80
2023-04-11T18:14:36.235Z,1.80
2023-04-11T18:17:05.343Z,1.73
2023-04-11T18:19:34.632Z,1.88
2023-04-11T18:22:03.731Z,1.70
2023-04-11T18:24:32.826Z,1.60
2023-04-11T18:27:03.444Z,1.75
2023-04-11T18:29:32.637Z,2.00
2023-04-11T18:32:04.558Z,1.60
2023-04-11T18:34:32.796Z,1.60
2023-04-11T18:37:03.450Z,1.90
2023-04-11T18:39:45.362Z,1.77
2023-04-11T18:45:07.033Z,1.70
2023-04-11T18:47:39.767Z,2.15
2023-04-11T18:50:16.623Z,1.92
2023-04-11T18:52:56.177Z,1.80
2023-04-11T18:55:32.548Z,1.90
2023-04-11T18:58:05.683Z,1.88
2023-04-11T19:00:36.415Z,1.98
2023-04-11T19:03:06.059Z,1.85
2023-04-11T19:05:36.092Z,1.92
2023-04-11T19:08:05.341Z,1.90
2023-04-11T19:10:34.699Z,1.90
2023-04-11T19:13:04.247Z,1.90
2023-04-11T19:15:33.220Z,1.95
2023-04-11T19:18:03.179Z,1.67
2023-04-11T19:20:33.224Z,2.00
2023-04-11T19:23:03.402Z,2.08
2023-04-11T19:25:32.744Z,2.00
2023-04-11T19:28:03.002Z,1.90
2023-04-11T19:30:32.437Z,1.80
2023-04-11T19:33:03.493Z,1.77
2023-04-11T19:35:32.900Z,2.03
2023-04-11T19:38:06.152Z,1.70
2023-04-11T19:40:38.485Z,1.57
2023-04-11T19:43:08.438Z,1.80
2023-04-11T19:45:39.710Z,1.80
2023-04-11T19:48:13.074Z,1.80
2023-04-11T19:50:43.138Z,1.85
2023-04-11T19:53:12.458Z,1.73
2023-04-11T19:55:41.824Z,1.60
2023-04-11T19:58:12.193Z,1.80
2023-04-11T20:00:43.069Z,1.80
2023-04-11T20:03:15.368Z,1.92
2023-04-11T20:05:45.083Z,1.80
2023-04-11T20:08:15.062Z,1.90
2023-04-11T20:10:44.864Z,1.85
2023-04-11T20:13:20.037Z,2.40
2023-04-11T20:15:49.063Z,2.30
2023-04-11T20:18:18.913Z,2.10
2023-04-11T20:20:48.106Z,2.00
2023-04-11T20:23:16.810Z,2.22
2023-04-11T20:25:45.375Z,2.10
2023-04-11T20:28:14.517Z,2.10
2023-04-11T20:30:44.423Z,2.05
2023-04-11T20:33:13.390Z,2.00
2023-04-11T20:35:43.198Z,2.17
2023-04-11T20:38:12.379Z,2.10
2023-04-11T20:40:45.824Z,1.90
2023-04-11T20:43:26.562Z,2.20
2023-04-11T20:46:00.542Z,2.00
2023-04-11T20:48:31.400Z,1.90
2023-04-11T20:51:03.240Z,2.10
2023-04-11T20:53:32.353Z,2.10
2023-04-11T20:56:05.318Z,2.03
2023-04-11T20:58:36.297Z,1.90
2023-04-11T21:01:08.242Z,2.08
2023-04-11T21:03:42.589Z,2.05
2023-04-11T21:06:13.470Z,1.83
2023-04-11T21:08:44.118Z,2.03
2023-04-11T21:11:13.253Z,2.00
2023-04-11T21:13:43.269Z,1.80
2023-04-11T21:16:12.607Z,2.00
2023-04-11T21:18:42.157Z,2.00
2023-04-11T21:21:12.260Z,1.80
2023-04-11T21:23:43.204Z,2.00
2023-04-11T21:26:12.391Z,1.98
2023-04-11T21:28:41.838Z,1.80
2023-04-11T21:31:12.547Z,1.63
2023-04-11T21:33:42.822Z,1.70
2023-04-11T21:36:12.537Z,1.83
2023-04-11T21:38:41.853Z,1.60
2023-04-11T21:41:11.132Z,1.67
2023-04-11T21:43:40.835Z,1.98
2023-04-11T21:46:11.039Z,1.70
2023-04-11T21:48:41.048Z,1.73
2023-04-11T21:51:09.866Z,1.45
2023-04-11T21:53:40.401Z,1.70
2023-04-11T21:56:38.672Z,1.60
2023-04-11T21:59:12.612Z,1.92
2023-04-11T22:01:48.915Z,1.70
2023-04-11T22:04:47.377Z,1.80
2023-04-11T22:07:24.591Z,1.75
2023-04-11T22:10:02.036Z,2.10
2023-04-11T22:12:32.992Z,1.50
2023-04-11T22:15:05.695Z,1.80
2023-04-11T22:20:09.728Z,1.63
2023-04-11T22:22:42.356Z,1.70
2023-04-11T22:25:12.073Z,1.70
2023-04-11T22:27:45.531Z,1.90
2023-04-11T22:32:47.516Z,1.60
2023-04-11T22:35:16.523Z,1.42
2023-04-11T22:37:45.414Z,1.80
2023-04-11T22:40:19.434Z,1.60
2023-04-11T22:42:51.273Z,1.77
2023-04-11T22:45:24.336Z,1.80
2023-04-11T22:47:55.169Z,1.60
2023-04-11T22:50:25.194Z,1.90
2023-04-11T22:52:55.597Z,1.40
2023-04-11T22:55:25.749Z,1.90
2023-04-11T22:57:56.398Z,1.60
2023-04-11T23:00:25.631Z,1.67
2023-04-11T23:02:57.326Z,2.00
2023-04-11T23:08:00.795Z,1.85
2023-04-11T23:10:29.904Z,1.75
2023-04-11T23:13:00.766Z,1.73
2023-04-11T23:15:30.815Z,1.80
2023-04-11T23:18:03.148Z,1.77
2023-04-11T23:20:32.533Z,1.60
2023-04-11T23:23:03.738Z,1.45
2023-04-11T23:25:32.843Z,1.45
2023-04-11T23:28:03.157Z,1.70
2023-04-11T23:30:32.716Z,1.73
2023-04-11T23:33:04.508Z,1.90
2023-04-11T23:35:35.168Z,1.70
2023-04-11T23:38:04.726Z,1.63
2023-04-11T23:40:43.747Z,1.55
2023-04-11T23:43:13.190Z,1.50
2023-04-11T23:45:43.598Z,1.70
2023-04-11T23:48:13.101Z,1.63
2023-04-11T23:50:43.399Z,1.75
2023-04-11T23:53:12.568Z,1.85
2023-04-11T23:55:45.783Z,1.90
